createdAt,value
2023-08-08T00:02:24.367Z,98585.59
2023-08-08T00:06:26.725Z,98579.53
2023-08-08T00:10:28.844Z,98588.44
2023-08-08T00:14:31.092Z,98582.81
2023-08-08T00:18:33.265Z,98585.53
2023-08-08T00:22:35.355Z,98583.81
2023-08-08T00:26:37.585Z,98588.13
2023-08-08T00:30:39.751Z,98584.13
2023-08-08T00:34:41.981Z,98597.72
2023-08-08T00:38:44.072Z,98586.22
2023-08-08T00:42:46.277Z,98584.63
2023-08-08T00:46:48.574Z,98586.19
2023-08-08T00:50:51.745Z,98579.50
2023-08-08T00:54:54.470Z,98586.53
2023-08-08T00:58:57.393Z,98581.88
2023-08-08T01:03:02.738Z,98576.53
2023-08-08T01:07:33.999Z,98579.34
2023-08-08T01:11:44.386Z,98580.16
2023-08-08T01:15:49.680Z,98579.94
2023-08-08T01:19:52.411Z,98581.59
2023-08-08T01:24:20.140Z,98588.00
2023-08-08T01:28:24.091Z,98605.16
2023-08-08T01:32:26.297Z,98600.59
2023-08-08T01:36:55.440Z,98606.72
2023-08-08T01:40:59.034Z,98611.19
2023-08-08T01:45:01.498Z,98623.16
2023-08-08T01:49:05.528Z,98619.31
2023-08-08T01:53:07.753Z,98616.88
2023-08-08T01:57:10.101Z,98611.47
2023-08-08T02:01:12.333Z,98613.31
2023-08-08T02:05:14.879Z,98624.31
2023-08-08T02:09:18.191Z,98617.88
2023-08-08T02:13:21.548Z,98622.53
2023-08-08T02:17:27.718Z,98622.22
2023-08-08T02:21:32.384Z,98620.00
2023-08-08T02:25:34.447Z,98624.59
2023-08-08T02:29:36.777Z,98615.78
2023-08-08T02:33:38.973Z,98614.19
2023-08-08T02:37:41.207Z,98612.09
2023-08-08T02:41:45.381Z,98604.34
2023-08-08T02:45:48.366Z,98601.94
2023-08-08T02:49:50.802Z,98600.41
2023-08-08T02:53:53.111Z,98602.00
2023-08-08T02:57:55.940Z,98607.81
2023-08-08T03:01:58.260Z,98618.38
2023-08-08T03:06:03.053Z,98619.22
2023-08-08T03:10:06.115Z,98619.72
2023-08-08T03:14:10.228Z,98617.63
2023-08-08T03:18:13.732Z,98630.94
2023-08-08T03:22:15.966Z,98622.69
2023-08-08T03:26:18.583Z,98620.06
2023-08-08T03:30:21.715Z,98613.91
2023-08-08T03:34:23.991Z,98614.72
2023-08-08T03:38:26.364Z,98619.50
2023-08-08T03:42:28.539Z,98623.47
2023-08-08T03:46:31.159Z,98628.03
2023-08-08T03:50:33.683Z,98629.09
2023-08-08T03:54:35.957Z,98631.50
2023-08-08T03:58:39.665Z,98634.13
2023-08-08T04:02:42.265Z,98645.91
2023-08-08T04:06:44.455Z,98643.78
2023-08-08T04:10:48.411Z,98649.66
2023-08-08T04:14:50.526Z,98655.50
2023-08-08T04:18:52.619Z,98648.31
2023-08-08T04:22:54.692Z,98651.47
2023-08-08T04:26:57.016Z,98650.19
2023-08-08T04:30:59.226Z,98660.03
2023-08-08T04:35:01.481Z,98659.75
2023-08-08T04:39:03.656Z,98665.38
2023-08-08T04:43:05.779Z,98672.03
2023-08-08T04:47:07.872Z,98671.53
2023-08-08T04:51:10.289Z,98680.59
2023-08-08T04:55:12.446Z,98672.59
2023-08-08T04:59:14.652Z,98677.91
2023-08-08T05:03:16.839Z,98672.06
2023-08-08T05:07:19.029Z,98678.44
2023-08-08T05:11:21.313Z,98689.09
2023-08-08T05:15:23.458Z,98696.53
2023-08-08T05:19:26.374Z,98694.13
2023-08-08T05:23:28.645Z,98691.72
2023-08-08T05:27:30.750Z,98701.25
2023-08-08T05:31:32.959Z,98698.81
2023-08-08T05:35:35.069Z,98704.97
2023-08-08T05:39:37.274Z,98721.19
2023-08-08T05:43:39.365Z,98710.66
2023-08-08T05:47:41.703Z,98717.00
2023-08-08T05:51:43.980Z,98720.09
2023-08-08T05:55:46.194Z,98715.06
2023-08-08T05:59:49.375Z,98712.06
2023-08-08T06:03:51.619Z,98703.81
2023-08-08T06:07:53.850Z,98713.69
2023-08-08T06:11:56.247Z,98718.31
2023-08-08T06:15:58.950Z,98715.38
2023-08-08T06:20:01.289Z,98720.22
2023-08-08T06:24:03.682Z,98720.16
2023-08-08T06:28:07.816Z,98722.66
2023-08-08T06:32:10.028Z,98713.69
2023-08-08T06:36:12.159Z,98721.31
2023-08-08T06:40:14.455Z,98707.38
2023-08-08T06:44:42.929Z,98703.47
2023-08-08T06:49:04.121Z,98695.88
2023-08-08T06:53:06.872Z,98689.28
2023-08-08T06:57:08.942Z,98687.44
2023-08-08T07:01:11.516Z,98683.63
2023-08-08T07:05:14.319Z,98684.47
2023-08-08T07:09:16.342Z,98690.34
2023-08-08T07:13:18.770Z,98693.97
2023-08-08T07:17:20.814Z,98693.59
2023-08-08T07:21:22.937Z,98699.44
2023-08-08T07:25:25.017Z,98693.63
2023-08-08T07:29:27.552Z,98700.31
2023-08-08T07:33:29.703Z,98706.41
2023-08-08T07:37:31.882Z,98696.56
2023-08-08T07:41:33.956Z,98705.69
2023-08-08T07:45:36.126Z,98689.97
2023-08-08T07:49:38.166Z,98695.53
2023-08-08T07:53:40.216Z,98695.31
2023-08-08T07:57:42.380Z,98698.50
2023-08-08T08:01:44.929Z,98694.59
2023-08-08T08:05:47.946Z,98704.44
2023-08-08T08:09:50.291Z,98701.66
2023-08-08T08:13:52.794Z,98698.41
2023-08-08T08:17:55.033Z,98700.09
2023-08-08T08:21:57.176Z,98697.19
2023-08-08T08:26:00.200Z,98688.63
2023-08-08T08:30:02.327Z,98697.66
2023-08-08T08:34:13.025Z,98689.97
2023-08-08T08:38:15.171Z,98683.53
2023-08-08T08:42:19.756Z,98684.03
2023-08-08T08:46:23.477Z,98680.34
2023-08-08T08:50:28.750Z,98681.66
2023-08-08T08:54:31.464Z,98687.97
2023-08-08T08:58:33.754Z,98684.78
2023-08-08T09:02:36.262Z,98684.44
2023-08-08T09:06:39.994Z,98684.97
2023-08-08T09:10:42.422Z,98679.75
2023-08-08T09:14:44.631Z,98686.28
2023-08-08T09:18:46.832Z,98684.84
2023-08-08T09:22:49.685Z,98680.53
2023-08-08T09:26:52.281Z,98681.59
2023-08-08T09:30:54.755Z,98682.38
2023-08-08T09:34:58.568Z,98679.66
2023-08-08T09:39:00.646Z,98681.28
2023-08-08T09:43:03.359Z,98677.63
2023-08-08T09:47:05.711Z,98684.47
2023-08-08T09:51:09.065Z,98682.25
2023-08-08T09:55:12.873Z,98674.69
2023-08-08T09:59:15.423Z,98681.97
2023-08-08T10:03:18.412Z,98683.31
2023-08-08T10:07:20.671Z,98677.09
2023-08-08T10:11:24.646Z,98680.44
2023-08-08T10:15:28.480Z,98673.91
2023-08-08T10:19:30.476Z,98664.25
2023-08-08T10:23:39.466Z,98659.84
2023-08-08T10:27:41.592Z,98666.94
2023-08-08T10:31:53.061Z,98662.66
2023-08-08T10:35:59.390Z,98664.66
2023-08-08T10:40:07.127Z,98664.63
2023-08-08T10:44:10.120Z,98654.69
2023-08-08T10:48:12.922Z,98652.75
2023-08-08T10:52:16.002Z,98648.97
2023-08-08T10:56:19.823Z,98640.75
2023-08-08T11:00:25.722Z,98650.28
2023-08-08T11:04:28.072Z,98643.84
2023-08-08T11:08:36.733Z,98641.31
2023-08-08T11:12:41.092Z,98635.28
2023-08-08T11:16:44.728Z,98636.91
2023-08-08T11:20:47.007Z,98634.53
2023-08-08T11:24:51.121Z,98635.81
2023-08-08T11:28:53.509Z,98626.28
2023-08-08T11:37:03.637Z,98625.03
2023-08-08T11:41:06.417Z,98624.34
2023-08-08T11:45:10.867Z,98628.91
2023-08-08T11:49:15.793Z,98619.94
2023-08-08T11:53:21.274Z,98609.44
2023-08-08T11:57:24.984Z,98613.13
2023-08-08T12:01:29.020Z,98600.13
2023-08-08T12:05:31.554Z,98601.66
2023-08-08T12:09:34.216Z,98598.91
2023-08-08T12:13:38.827Z,98596.22
2023-08-08T12:17:41.390Z,98603.41
2023-08-08T12:21:43.487Z,98591.91
2023-08-08T12:25:45.696Z,98590.38
2023-08-08T12:29:47.913Z,98595.72
2023-08-08T12:33:50.651Z,98581.63
2023-08-08T12:37:53.793Z,98577.78
2023-08-08T12:41:56.765Z,98576.34
2023-08-08T12:45:59.051Z,98572.56
2023-08-08T12:50:01.373Z,98572.69
2023-08-08T12:54:03.754Z,98570.13
2023-08-08T12:58:06.184Z,98561.63
2023-08-08T13:02:09.045Z,98567.63
2023-08-08T13:06:13.806Z,98562.63
2023-08-08T13:10:16.153Z,98559.50
2023-08-08T13:14:18.579Z,98554.88
2023-08-08T13:18:22.432Z,98553.38
2023-08-08T13:22:24.939Z,98547.53
2023-08-08T13:26:27.421Z,98541.28
2023-08-08T13:30:29.828Z,98540.78
2023-08-08T13:34:32.081Z,98541.25
2023-08-08T13:38:34.397Z,98530.38
2023-08-08T13:42:36.676Z,98532.41
2023-08-08T13:46:39.043Z,98536.72
2023-08-08T13:50:41.275Z,98533.19
2023-08-08T13:54:43.440Z,98528.16
2023-08-08T13:58:45.641Z,98521.97
2023-08-08T14:02:48.030Z,98516.16
2023-08-08T14:06:50.280Z,98525.16
2023-08-08T14:10:52.514Z,98518.16
2023-08-08T14:14:54.809Z,98518.97
2023-08-08T14:18:57.140Z,98522.13
2023-08-08T14:22:59.432Z,98517.78
2023-08-08T14:27:02.053Z,98515.91
2023-08-08T14:31:07.634Z,98509.28
2023-08-08T14:35:11.543Z,98516.78
2023-08-08T14:39:13.823Z,98508.13
2023-08-08T14:43:16.038Z,98509.66
2023-08-08T14:47:18.315Z,98506.16
2023-08-08T14:51:21.672Z,98505.78
2023-08-08T14:55:24.016Z,98500.31
2023-08-08T14:59:26.336Z,98501.13
2023-08-08T15:03:28.783Z,98499.91
2023-08-08T15:07:31.210Z,98498.69
2023-08-08T15:11:33.600Z,98487.25
2023-08-08T15:15:36.186Z,98489.25
2023-08-08T15:19:39.706Z,98483.38
2023-08-08T15:23:43.359Z,98485.22
2023-08-08T15:27:45.722Z,98475.78
2023-08-08T15:31:47.823Z,98465.50
2023-08-08T15:35:51.491Z,98471.25
2023-08-08T15:39:53.666Z,98473.88
2023-08-08T15:43:55.993Z,98465.84
2023-08-08T15:47:58.234Z,98462.25
2023-08-08T15:52:00.860Z,98458.94
2023-08-08T15:56:03.381Z,98453.25
2023-08-08T16:00:07.259Z,98455.28
2023-08-08T16:04:16.166Z,98451.53
2023-08-08T16:08:19.029Z,98451.97
2023-08-08T16:12:21.605Z,98449.22
2023-08-08T16:16:24.006Z,98445.25
2023-08-08T16:20:26.345Z,98446.16
2023-08-08T16:24:28.852Z,98444.97
2023-08-08T16:28:30.973Z,98443.94
2023-08-08T16:32:33.276Z,98436.19
2023-08-08T16:36:37.353Z,98440.63
2023-08-08T16:40:40.671Z,98441.59
2023-08-08T16:44:42.799Z,98440.25
2023-08-08T16:48:44.920Z,98437.09
2023-08-08T16:52:46.976Z,98441.47
2023-08-08T16:56:50.529Z,98446.59
2023-08-08T17:00:55.206Z,98438.63
2023-08-08T17:04:57.361Z,98432.53
2023-08-08T17:09:00.974Z,98433.06
2023-08-08T17:13:03.735Z,98425.16
2023-08-08T17:17:06.443Z,98405.34
2023-08-08T17:21:09.006Z,98405.75
2023-08-08T17:25:11.034Z,98405.28
2023-08-08T17:29:13.459Z,98396.72
2023-08-08T17:33:15.870Z,98399.19
2023-08-08T17:37:18.123Z,98421.72
2023-08-08T17:41:20.692Z,98422.19
2023-08-08T17:45:22.927Z,98425.66
2023-08-08T17:49:25.038Z,98420.41
2023-08-08T17:53:27.354Z,98417.50
2023-08-08T17:57:31.583Z,98416.88
2023-08-08T18:01:34.699Z,98414.84
2023-08-08T18:05:37.012Z,98420.91
2023-08-08T18:09:39.262Z,98411.94
2023-08-08T18:13:41.732Z,98430.44
2023-08-08T18:17:43.881Z,98431.84
2023-08-08T18:21:46.647Z,98439.09
2023-08-08T18:25:49.994Z,98450.78
2023-08-08T18:29:52.136Z,98446.56
2023-08-08T18:34:01.649Z,98457.63
2023-08-08T18:38:07.778Z,98467.44
2023-08-08T18:42:09.946Z,98469.94
2023-08-08T18:46:12.968Z,98484.03
2023-08-08T18:50:15.250Z,98495.03
2023-08-08T18:54:17.703Z,98496.88
2023-08-08T18:58:19.985Z,98503.25
2023-08-08T19:02:22.906Z,98516.69
2023-08-08T19:06:25.303Z,98500.56
2023-08-08T19:10:27.679Z,98503.94
2023-08-08T19:14:30.047Z,98512.44
2023-08-08T19:18:32.367Z,98523.06
2023-08-08T19:22:34.656Z,98522.91
2023-08-08T19:26:37.047Z,98516.94
2023-08-08T19:30:39.229Z,98516.06
2023-08-08T19:34:41.611Z,98518.53
2023-08-08T19:38:44.143Z,98516.34
2023-08-08T19:42:46.424Z,98522.31
2023-08-08T19:46:49.208Z,98525.88
2023-08-08T19:50:51.750Z,98535.09
2023-08-08T19:54:55.023Z,98542.19
2023-08-08T19:58:57.633Z,98541.13
2023-08-08T20:02:59.903Z,98540.63
2023-08-08T20:07:02.198Z,98548.75
2023-08-08T20:11:06.751Z,98540.00
2023-08-08T20:15:09.597Z,98543.84
2023-08-08T20:19:12.437Z,98545.50
2023-08-08T20:23:14.813Z,98554.94
2023-08-08T20:27:17.725Z,98563.00
2023-08-08T20:31:19.867Z,98555.97
2023-08-08T20:35:22.073Z,98556.16
2023-08-08T20:39:24.452Z,98564.66
2023-08-08T20:43:27.758Z,98565.19
2023-08-08T20:47:31.322Z,98572.59
2023-08-08T20:51:34.316Z,98585.53
2023-08-08T20:55:37.139Z,98579.84
2023-08-08T20:59:39.681Z,98596.34
2023-08-08T21:03:42.465Z,98597.00
2023-08-08T21:07:45.111Z,98599.84
2023-08-08T21:11:47.392Z,98601.47
2023-08-08T21:15:49.673Z,98606.66
2023-08-08T21:19:53.915Z,98610.84
2023-08-08T21:23:56.321Z,98598.91
2023-08-08T21:27:58.687Z,98603.38
2023-08-08T21:32:00.940Z,98604.94
2023-08-08T21:36:03.852Z,98601.13
2023-08-08T21:40:07.165Z,98600.47
2023-08-08T21:44:09.363Z,98601.75
2023-08-08T21:48:11.646Z,98605.53
2023-08-08T21:52:14.240Z,98586.16
2023-08-08T21:56:16.422Z,98592.31
2023-08-08T22:00:19.045Z,98598.41
2023-08-08T22:04:21.228Z,98594.75
2023-08-08T22:08:23.562Z,98587.44
2023-08-08T22:12:25.968Z,98596.81
2023-08-08T22:16:28.190Z,98592.09
2023-08-08T22:20:30.632Z,98600.28
2023-08-08T22:24:34.344Z,98599.19
2023-08-08T22:28:36.872Z,98607.25
2023-08-08T22:32:39.064Z,98605.66
2023-08-08T22:36:41.435Z,98605.75
2023-08-08T22:40:45.486Z,98597.41
2023-08-08T22:44:50.430Z,98596.50
2023-08-08T22:48:52.810Z,98596.91
2023-08-08T22:52:55.046Z,98601.69
2023-08-08T22:56:57.234Z,98594.72
2023-08-08T23:01:00.412Z,98596.91
2023-08-08T23:05:07.360Z,98607.47
2023-08-08T23:09:11.824Z,98600.59
2023-08-08T23:13:13.918Z,98594.41
2023-08-08T23:17:16.165Z,98591.44
2023-08-08T23:21:19.093Z,98592.72
2023-08-08T23:25:24.000Z,98596.19
2023-08-08T23:29:26.161Z,98589.03
2023-08-08T23:33:28.409Z,98596.59
2023-08-08T23:37:30.670Z,98586.97
2023-08-08T23:41:32.819Z,98595.06
2023-08-08T23:45:35.088Z,98602.53
2023-08-08T23:49:37.317Z,98591.91
2023-08-08T23:53:39.531Z,98584.72
2023-08-08T23:57:41.704Z,98586.75
